Aktualne dane pomiarowe

Uwaga, wersja testowa! Automatyczne pobieranie danych za pomocą narzędzi lub skryptów to umożliwiających jest zabronione.

Dane meteo z obszaru Polski uzyskane na podstawie depesz SYNOP pobieranych co godzinę z NWS. Najedź myszką na symbol przedstawiony w tabeli, aby uzyskać informacje co do jego znaczenia. Prosimy pamiętać, że to testowa wersja strony, która jeszcze nie jest ukończona. Stworzono również jest krótki FAQ dotyczący korzystania z tej podstrony Anomalie temperatury w chwili obecnej odniesione są do okresu referencyjnego 1951-2016. Okres ten będzie później zmieniony na 1981-2010. Kliknij ikonę aby pobrać plik CSV. Kliknij ikonę aby wygenerować mapę synoptyczną dla danego terminu.

Wybierz Datę:    

        

Mława (12270)

Dane terminowe dla wybranej stacji. Kliknij datę, aby otrzymać dane z tego terminu dla wszystkich stacji.

TemperaturaZachmurzenieWiatrCiśnienieOpadyPogoda
 Data t td wb tx tn tg rh  Nt Nl Cl Cm Ch ws wd g1 g2 wx mslp ppp ch 24h 12h t ww ww w1 w2  
2019-08-17 23:00:00 18.3 11.6 14.1--- 6550.0wx-wx1wx--11012.8 995.3 -0.4---------
2019-08-17 22:00:00 18.3 11.8 14.2--- 6640.0wx-wx2wx--21012.9 995.4 -0.4---------
2019-08-17 21:00:00 18.0 12.2 14.3--- 6929.0wx-wx1wx--11013.1 995.6 -0.4---------
2019-08-17 20:00:00 18.4 12.4 14.6--- 6821.0wx-wx1wx--11013.2 995.7 -0.1---------
2019-08-17 19:00:00 19.6 12.4 15.1--- 6321.0wx-wx1wx--11013.2 995.8 0.0---------
2019-08-17 18:00:00 21.6 11.6 15.5 25.3 15.6- 5330.0wx-wx1wx--11013.3 996.0 0.1- 0.012------
2019-08-17 17:00:00 23.1 11.2 15.9--- 4725.0wxwxwxwx3wx--31013.0 995.8 -0.6---------
2019-08-17 16:00:00 23.9 11.6 16.5--- 4645.0wxwxwxwxwx2wx--21012.9 995.8 -0.8---------
2019-08-17 15:00:00 24.3 11.3 16.5--- 4445.0wxwxwxwxwx2wx--21013.0 995.9 -1.1---------
2019-08-17 14:00:00 23.8 10.8 16.0--- 4445.0wxwxwxwx2wx--21013.6 996.4 -1.0---------
2019-08-17 13:00:00 24.5 11.1 16.5--- 4345.0wxwxwxwx3wx--31013.7 996.6 -1.3---------
2019-08-17 12:00:00 24.1 11.1 16.3--- 4440.0wxwxwxwxwx3wx---1014.2 997.0 -1.2---------
2019-08-17 11:00:00 24.0 11.3 16.4--- 4535.0wxwxwx4wx--41014.6 997.4 -1.0---------
2019-08-17 10:00:00 23.4 11.1 16.0--- 4640.0wxwxwxwx3wx--31015.1 997.9 -0.7---------
2019-08-17 09:00:00 23.2 12.2 16.5--- 5045.0wxwxwxwx2wx--21015.4 998.2 -0.4---------
2019-08-17 08:00:00 21.9 13.3 16.5--- 5835.0wxwxwxwx2wx--21015.7 998.4 -0.2---------
2019-08-17 07:00:00 19.6 14.2 16.0--- 7135.0wx-wx2wx--21016.0 998.6 0.1---------
2019-08-17 06:00:00 15.6 14.3 14.7 19.4 11.1 9 929.0wx-wx0---01016.3 998.6 0.3- 0.012wx-w1- 4.2
2019-08-17 05:00:00 12.2 12.2 12.2--- 1000.7wxwxwx0----1016.5 998.6 0.1---wx-w1w2--
2019-08-17 04:00:00 11.2 11.2 11.1--- 1000.1wx-0---01016.5 998.5 0.2---wx-w1w2--
2019-08-17 03:00:00 11.3 11.3 11.2--- 1000.1wx-1wx--11016.3 998.3 0.1---wx---
2019-08-17 02:00:00 11.1 10.6 10.7--- 970.5wx-0----1016.5 998.5 0.0---wx---
2019-08-17 01:00:00 11.7 11.2 11.3--- 972.2wx-0---01016.2 998.3 -0.1---wx22--
2019-08-17 00:00:00 12.8 12.3 12.4--- 9710.0wx-2wx--21016.1 998.2 -0.1- 0.06-22----
2019-08-16 23:00:00 13.1 12.3 12.5--- 9510.0wx-0---01016.3 998.5 0.3----22----
2019-08-16 22:00:00 13.9 12.6 13.0--- 9218.0wx-wx1wx--11016.2 998.4 0.3---------
2019-08-16 21:00:00 15.4 13.1 13.8--- 8635.0wx-wx1wx--11016.0 998.3 0.5---------
2019-08-16 20:00:00 16.8 13.1 14.3--- 7950.0wx-wx1wx--11015.8 998.2 0.8---------
2019-08-16 19:00:00 18.4 13.5 15.2--- 7350.0wxwxwxwx1wx--11015.6 998.1 1.2---------
2019-08-16 18:00:00 19.4 13.1 15.3 25.8 17.3- 6750.0wxwxwx3wx--31015.2 997.8 0.8- 0.012------
2019-08-16 17:00:00 20.9 12.8 15.8--- 6050.0wxwxwxwx2wx--21014.7 997.4 0.6---------
2019-08-16 16:00:00 22.0 12.0 15.9--- 5340.0wxwxwxwx2wx---1014.2 996.9 0.3---------
2019-08-16 15:00:00 22.1 11.2 15.5--- 5040.0wxwxwx4wx--41014.3 997.0 0.3---------
2019-08-16 14:00:00 23.9 11.6 16.5--- 4640.0wxwxwx5wx--51014.0 996.8 -0.1---------
2019-08-16 13:00:00 24.8 8.7 15.5--- 3645.0wxwxwxwx4wx--41013.7 996.6 -0.6---------
2019-08-16 12:00:00 25.2 9.1 15.9--- 3635.0wxwxwxwxwx4wx--41013.8 996.7 -0.6- 0.06------
2019-08-16 11:00:00 24.8 8.7 15.5--- 3628.0wxwxwxwxwx6wx---1014.0 996.9 -0.4---------
2019-08-16 10:00:00 23.3 9.3 15.2--- 4145.0wx-wxwx4wx--41014.4 997.2 -0.1---------
2019-08-16 09:00:00 21.8 9.7 14.7--- 4640.0wxwxwxwx3wx--31014.6 997.3 0.1---------
2019-08-16 08:00:00 20.9 10.1 14.5--- 5035.0wxwxwxwx3wx--31014.6 997.3 0.2---------
2019-08-16 07:00:00 19.9 8.9 13.5--- 4940.0wx-wx4wx--41014.7 997.3 0.2---------
2019-08-16 06:00:00 17.3 9.5 12.6 19.3 12.3 10 6035.0wx-wxwx2wx--21014.8 997.2 0.3- 0.012----- 11.1
2019-08-16 05:00:00 13.3 8.4 10.3--- 7235.0wx-wxwx2wx--21014.9 997.1 0.1---------
2019-08-16 04:00:00 12.8 7.7 9.7--- 7145.0wx-wxwx2wx--21014.9 997.1 0.0---------
2019-08-16 03:00:00 12.6 7.3 9.4--- 7050.0wx-wxwx2wx--21014.7 996.9 -0.3---------
2019-08-16 02:00:00 12.4 6.7 9.0--- 6850.0wx-wxwx2wx--21014.9 997.0 -0.3---------
2019-08-16 01:00:00 12.9 6.2 9.0--- 6450.0wx-wxwx2wx---1014.9 997.1 -0.3---------
2019-08-16 00:00:00 13.5 5.9 9.2--- 6050.0wx-wxwx2wx--21015.0 997.2 -0.2- 0.06------
1.8 ms

 

Print Friendly, PDF & Email